FAG weather

Fagurhólsmýri Airport
Fagurhólsmýri, Eastern Region, Iceland

Public forecast

Using degrees Celsius for public forecast. Weather courtesy of forecast.io.

METAR (pilot weather report)

Closest report is Hornafjörður Airport, 44.9 nm (83.1 km) NE. Retrieved 2019/06/16 16:00 UTC (40 minutes ago):

BIHN 161600Z 18007KT 9999 FEW005 FEW025 13/08 Q1014

TAF (pilot weather forecast)

Closest forecast is Egilsstaðir Airport, 102.4 nm (189.6 km) NNE. Retrieved 2019/06/16 15:33 UTC (1 hour ago):

TAF BIEG 161330Z 1615/1715 36013KT 9999 SCT040 TX14/1615Z TN04/1706Z BECMG 1621/1700 5000 BR BKN005 OVC010 PROB40 TEMPO 1623/1706 0500 DZ FG VV002 BECMG 1707/1710 9999 NSW BKN030